Time,TemperatureF,DewpointF,PressureIn,WindDirection,WindDirectionDegrees,WindSpeedMPH,WindSpeedGustMPH,Humidity,HourlyPrecipIn,Conditions,Clouds,dailyrainin,SoftwareType,DateUTC
2013-08-21 00:00:00,70.8,70.2,30.10,ESE,103,0.0,0.0,98,0.00,,,0.00,WeatherTracker,2013-08-21 05:00:00,
2013-08-21 00:10:00,70.8,70.2,30.10,ESE,103,0.0,0.0,98,0.00,,,0.00,WeatherTracker,2013-08-21 05:10:00,
2013-08-21 00:20:00,70.8,70.2,30.10,ESE,103,0.0,0.0,98,0.00,,,0.00,WeatherTracker,2013-08-21 05:20:00,
2013-08-21 00:30:00,70.7,70.1,30.10,ESE,103,0.0,0.0,98,0.00,,,0.00,WeatherTracker,2013-08-21 05:30:00,
2013-08-21 00:40:00,70.6,70.0,30.09,ESE,103,0.0,0.0,98,0.00,,,0.00,WeatherTracker,2013-08-21 05:40:00,
2013-08-21 00:45:00,70.6,70.0,30.09,ESE,103,0.0,0.0,98,0.00,,,0.00,WeatherTracker,2013-08-21 05:45:00,
2013-08-21 00:55:00,70.6,70.0,30.09,ESE,103,0.0,0.0,98,0.00,,,0.00,WeatherTracker,2013-08-21 05:55:00,
2013-08-21 01:00:00,70.6,70.0,30.09,ESE,103,0.0,0.0,98,0.00,,,0.00,WeatherTracker,2013-08-21 06:00:00,
2013-08-21 01:05:00,70.5,69.9,30.09,ESE,103,0.0,0.0,98,0.00,,,0.00,WeatherTracker,2013-08-21 06:05:00,
2013-08-21 01:15:00,70.4,69.8,30.09,ESE,103,0.0,0.0,98,0.00,,,0.00,WeatherTracker,2013-08-21 06:15:00,
2013-08-21 01:25:00,70.4,69.8,30.09,ESE,103,0.0,0.0,98,0.00,,,0.00,WeatherTracker,2013-08-21 06:25:00,
2013-08-21 01:30:00,70.3,69.7,30.09,ESE,103,0.0,0.0,98,0.00,,,0.00,WeatherTracker,2013-08-21 06:30:00,
2013-08-21 01:35:00,70.3,69.7,30.09,ESE,103,0.0,0.0,98,0.00,,,0.00,WeatherTracker,2013-08-21 06:35:00,
2013-08-21 01:45:00,70.2,69.6,30.08,ESE,103,0.0,0.0,98,0.00,,,0.00,WeatherTracker,2013-08-21 06:45:00,
2013-08-21 01:55:00,70.1,69.5,30.07,ESE,103,0.0,0.0,98,0.00,,,0.00,WeatherTracker,2013-08-21 06:55:00,
2013-08-21 02:00:00,70.1,69.5,30.07,ESE,103,0.0,0.0,98,0.00,,,0.00,WeatherTracker,2013-08-21 07:00:00,
2013-08-21 02:10:00,70.0,69.4,30.08,ESE,103,0.0,0.0,98,0.00,,,0.00,WeatherTracker,2013-08-21 07:10:00,
2013-08-21 02:15:00,69.9,69.3,30.08,ESE,103,0.0,0.0,98,0.00,,,0.00,WeatherTracker,2013-08-21 07:15:00,
2013-08-21 02:20:00,69.9,69.3,30.08,ESE,103,0.0,0.0,98,0.00,,,0.00,WeatherTracker,2013-08-21 07:20:00,
2013-08-21 02:25:00,69.9,69.3,30.08,ESE,103,0.0,0.0,98,0.00,,,0.00,WeatherTracker,2013-08-21 07:25:00,
2013-08-21 02:30:00,69.9,69.3,30.08,ESE,103,0.0,0.0,98,0.00,,,0.00,WeatherTracker,2013-08-21 07:30:00,
2013-08-21 02:40:00,69.9,69.3,30.08,ESE,103,0.0,0.0,98,0.00,,,0.00,WeatherTracker,2013-08-21 07:40:00,
2013-08-21 02:50:00,69.9,69.3,30.08,ESE,103,0.0,0.0,98,0.00,,,0.00,WeatherTracker,2013-08-21 07:50:00,
2013-08-21 03:00:00,69.9,69.3,30.08,ESE,103,0.0,0.0,98,0.00,,,0.00,WeatherTracker,2013-08-21 08:00:00,
2013-08-21 03:11:00,69.8,69.2,30.08,ESE,103,0.0,0.0,98,0.00,,,0.00,WeatherTracker,2013-08-21 08:11:00,
2013-08-21 03:20:00,69.7,69.1,30.08,ESE,103,0.0,0.0,98,0.00,,,0.00,WeatherTracker,2013-08-21 08:20:00,
2013-08-21 03:25:00,69.6,69.0,30.08,ESE,103,0.0,0.0,98,0.00,,,0.00,WeatherTracker,2013-08-21 08:25:00,
2013-08-21 03:30:00,69.6,69.0,30.07,ESE,103,0.0,0.0,98,0.00,,,0.00,WeatherTracker,2013-08-21 08:30:00,
2013-08-21 03:40:00,69.5,68.9,30.07,ESE,103,0.0,0.0,98,0.00,,,0.00,WeatherTracker,2013-08-21 08:40:00,
2013-08-21 03:50:00,69.6,69.0,30.08,ESE,103,0.0,0.0,98,0.00,,,0.00,WeatherTracker,2013-08-21 08:50:00,
2013-08-21 03:55:00,69.6,69.0,30.08,ESE,103,0.0,0.0,98,0.00,,,0.00,WeatherTracker,2013-08-21 08:55:00,
2013-08-21 04:05:00,69.8,69.2,30.08,ESE,103,0.0,0.0,98,0.00,,,0.00,WeatherTracker,2013-08-21 09:05:00,
2013-08-21 04:10:00,70.1,69.5,30.08,ESE,103,0.0,0.0,98,0.00,,,0.00,WeatherTracker,2013-08-21 09:10:00,
2013-08-21 04:20:00,70.4,69.8,30.08,ESE,103,0.0,0.0,98,0.00,,,0.00,WeatherTracker,2013-08-21 09:20:00,
2013-08-21 04:25:00,70.3,69.7,30.08,ESE,103,0.0,0.0,98,0.00,,,0.00,WeatherTracker,2013-08-21 09:25:00,
2013-08-21 04:35:00,70.5,69.9,30.08,ESE,103,0.0,0.0,98,0.00,,,0.00,WeatherTracker,2013-08-21 09:35:00,
2013-08-21 04:40:00,70.6,70.0,30.08,ESE,103,0.0,0.0,98,0.00,,,0.00,WeatherTracker,2013-08-21 09:40:00,
2013-08-21 04:50:00,70.3,69.7,30.08,ESE,103,0.0,0.0,98,0.00,,,0.00,WeatherTracker,2013-08-21 09:50:00,
2013-08-21 04:55:00,70.2,69.6,30.08,ESE,103,0.0,0.0,98,0.00,,,0.00,WeatherTracker,2013-08-21 09:55:00,
2013-08-21 05:00:00,70.2,69.6,30.08,ESE,103,0.0,0.0,98,0.00,,,0.00,WeatherTracker,2013-08-21 10:00:00,
2013-08-21 05:10:00,70.3,69.7,30.09,ESE,103,0.0,0.0,98,0.00,,,0.00,WeatherTracker,2013-08-21 10:10:00,
2013-08-21 05:15:00,70.4,69.8,30.09,ESE,103,0.0,0.0,98,0.00,,,0.00,WeatherTracker,2013-08-21 10:15:00,
2013-08-21 05:20:00,70.4,69.8,30.09,ESE,103,0.0,0.0,98,0.00,,,0.00,WeatherTracker,2013-08-21 10:20:00,
2013-08-21 05:25:00,70.4,69.8,30.09,ESE,103,0.0,0.0,98,0.00,,,0.00,WeatherTracker,2013-08-21 10:25:00,
2013-08-21 05:35:00,70.3,69.7,30.09,ESE,103,0.0,0.0,98,0.00,,,0.00,WeatherTracker,2013-08-21 10:35:00,
2013-08-21 05:40:00,70.2,69.6,30.09,ESE,103,0.0,0.0,98,0.00,,,0.00,WeatherTracker,2013-08-21 10:40:00,
2013-08-21 05:50:00,70.1,69.5,30.10,ESE,103,0.0,0.0,98,0.00,,,0.00,WeatherTracker,2013-08-21 10:50:00,
2013-08-21 05:55:00,70.0,69.4,30.09,ESE,103,0.0,0.0,98,0.01,,,0.01,WeatherTracker,2013-08-21 10:55:00,
2013-08-21 06:05:00,70.0,69.4,30.10,ESE,103,0.0,0.0,98,0.01,,,0.01,WeatherTracker,2013-08-21 11:05:00,
2013-08-21 06:10:00,70.1,69.5,30.10,ESE,103,0.0,0.0,98,0.01,,,0.01,WeatherTracker,2013-08-21 11:10:00,
2013-08-21 06:15:00,70.1,69.5,30.10,ESE,103,0.0,0.0,98,0.01,,,0.01,WeatherTracker,2013-08-21 11:15:00,
2013-08-21 06:25:00,70.2,69.6,30.10,ESE,103,0.0,0.0,98,0.01,,,0.01,WeatherTracker,2013-08-21 11:25:00,
2013-08-21 06:30:00,70.2,69.6,30.11,ESE,103,0.0,0.0,98,0.01,,,0.01,WeatherTracker,2013-08-21 11:30:00,
2013-08-21 06:40:00,70.3,69.7,30.11,East,101,0.0,0.0,98,0.01,,,0.01,WeatherTracker,2013-08-21 11:40:00,
2013-08-21 06:45:00,70.4,69.8,30.11,East,101,0.0,0.0,98,0.01,,,0.01,WeatherTracker,2013-08-21 11:45:00,
2013-08-21 06:55:00,70.6,70.0,30.11,East,101,0.0,0.0,98,0.00,,,0.01,WeatherTracker,2013-08-21 11:55:00,
2013-08-21 07:05:00,70.9,70.3,30.12,East,101,0.0,0.0,98,0.00,,,0.01,WeatherTracker,2013-08-21 12:05:00,
2013-08-21 07:10:00,71.1,70.5,30.12,East,101,0.0,0.0,98,0.00,,,0.01,WeatherTracker,2013-08-21 12:10:00,
2013-08-21 07:15:00,71.1,70.5,30.12,East,101,0.0,0.0,98,0.00,,,0.01,WeatherTracker,2013-08-21 12:15:00,
2013-08-21 07:25:00,71.3,70.7,30.13,East,101,0.0,0.0,98,0.00,,,0.01,WeatherTracker,2013-08-21 12:25:00,
2013-08-21 07:35:00,71.4,70.8,30.13,East,101,0.0,0.0,98,0.00,,,0.01,WeatherTracker,2013-08-21 12:35:00,
2013-08-21 07:45:00,71.6,71.0,30.13,East,97,0.0,0.0,98,0.00,,,0.01,WeatherTracker,2013-08-21 12:45:00,
2013-08-21 07:50:00,71.7,71.1,30.13,East,97,0.0,0.0,98,0.00,,,0.01,WeatherTracker,2013-08-21 12:50:00,
2013-08-21 07:55:00,72.0,71.7,30.13,East,97,0.0,0.0,99,0.00,,,0.01,WeatherTracker,2013-08-21 12:55:00,
2013-08-21 08:05:00,72.3,71.7,30.13,East,80,0.0,4.0,98,0.00,,,0.01,WeatherTracker,2013-08-21 13:05:00,
2013-08-21 08:10:00,72.4,71.8,30.13,East,80,0.0,4.0,98,0.00,,,0.01,WeatherTracker,2013-08-21 13:10:00,
2013-08-21 08:20:00,72.7,72.4,30.14,East,80,0.0,0.0,99,0.00,,,0.01,WeatherTracker,2013-08-21 13:20:00,
2013-08-21 08:25:00,72.8,72.2,30.14,East,81,0.0,0.0,98,0.00,,,0.01,WeatherTracker,2013-08-21 13:25:00,
2013-08-21 08:35:00,73.0,72.4,30.15,SSE,151,0.0,4.0,98,0.00,,,0.01,WeatherTracker,2013-08-21 13:35:00,
2013-08-21 08:45:00,73.3,73.0,30.14,ESE,103,0.0,0.0,99,0.00,,,0.01,WeatherTracker,2013-08-21 13:45:00,
2013-08-21 08:50:00,73.5,72.9,30.14,ESE,112,0.0,0.0,98,0.00,,,0.01,WeatherTracker,2013-08-21 13:50:00,
2013-08-21 09:00:00,73.9,73.6,30.14,ESE,112,0.0,0.0,99,0.00,,,0.01,WeatherTracker,2013-08-21 14:00:00,
2013-08-21 09:05:00,73.9,73.6,30.14,ESE,112,0.0,0.0,99,0.00,,,0.01,WeatherTracker,2013-08-21 14:05:00,
2013-08-21 09:15:00,74.4,74.1,30.15,SSE,163,0.0,7.0,99,0.00,,,0.01,WeatherTracker,2013-08-21 14:15:00,
2013-08-21 09:25:00,74.9,74.3,30.16,East,94,0.0,7.0,98,0.00,,,0.01,WeatherTracker,2013-08-21 14:25:00,
2013-08-21 09:30:00,75.6,75.0,30.16,East,80,0.0,2.0,98,0.00,,,0.01,WeatherTracker,2013-08-21 14:30:00,
2013-08-21 09:35:00,76.1,75.5,30.15,East,90,0.0,4.0,98,0.00,,,0.01,WeatherTracker,2013-08-21 14:35:00,
2013-08-21 09:45:00,78.1,76.5,30.15,ESE,103,0.0,1.0,95,0.00,,,0.01,WeatherTracker,2013-08-21 14:45:00,
2013-08-21 09:50:00,78.7,76.2,30.15,ESE,103,0.0,1.0,92,0.00,,,0.01,WeatherTracker,2013-08-21 14:50:00,
2013-08-21 09:55:00,79.1,75.6,30.15,East,101,0.0,0.0,89,0.00,,,0.01,WeatherTracker,2013-08-21 14:55:00,
2013-08-21 10:00:00,79.5,75.6,30.15,SE,137,0.0,0.0,88,0.00,,,0.01,WeatherTracker,2013-08-21 15:00:00,
2013-08-21 10:05:00,80.0,76.1,30.15,ESE,120,0.0,4.0,88,0.00,,,0.01,WeatherTracker,2013-08-21 15:05:00,
2013-08-21 10:15:00,80.3,75.7,30.15,ESE,119,0.0,0.0,86,0.00,,,0.01,WeatherTracker,2013-08-21 15:15:00,
2013-08-21 10:20:00,80.7,75.4,30.15,SE,126,0.0,0.0,84,0.00,,,0.01,WeatherTracker,2013-08-21 15:20:00,
2013-08-21 10:30:00,81.3,75.6,30.15,SE,124,0.0,0.0,83,0.00,,,0.01,WeatherTracker,2013-08-21 15:30:00,
2013-08-21 10:35:00,81.4,75.7,30.15,SE,124,0.0,0.0,83,0.00,,,0.01,WeatherTracker,2013-08-21 15:35:00,
2013-08-21 10:40:00,81.9,76.2,30.15,East,84,0.0,0.0,83,0.00,,,0.01,WeatherTracker,2013-08-21 15:40:00,
2013-08-21 10:50:00,82.1,76.4,30.15,East,84,0.0,0.0,83,0.00,,,0.01,WeatherTracker,2013-08-21 15:50:00,
2013-08-21 10:55:00,82.8,77.5,30.15,East,85,0.0,0.0,84,0.00,,,0.01,WeatherTracker,2013-08-21 15:55:00,
2013-08-21 11:00:00,82.9,76.8,30.15,East,84,0.0,0.0,82,0.00,,,0.01,WeatherTracker,2013-08-21 16:00:00,
2013-08-21 11:05:00,83.5,77.0,30.15,East,94,0.0,0.0,81,0.00,,,0.01,WeatherTracker,2013-08-21 16:05:00,
2013-08-21 11:15:00,83.8,76.6,30.15,SSE,157,0.0,2.0,79,0.00,,,0.01,WeatherTracker,2013-08-21 16:15:00,
2013-08-21 11:25:00,83.8,76.6,30.14,SSE,156,0.0,0.0,79,0.00,,,0.01,WeatherTracker,2013-08-21 16:25:00,
2013-08-21 11:30:00,84.1,77.2,30.14,East,101,0.0,0.0,80,0.00,,,0.01,WeatherTracker,2013-08-21 16:30:00,
2013-08-21 11:35:00,83.9,75.9,30.14,ESE,108,0.0,1.0,77,0.00,,,0.01,WeatherTracker,2013-08-21 16:35:00,
2013-08-21 11:40:00,83.6,76.0,30.14,ESE,108,0.0,1.0,78,0.00,,,0.01,WeatherTracker,2013-08-21 16:40:00,
2013-08-21 11:50:00,84.3,77.1,30.14,ESE,108,0.0,0.0,79,0.00,,,0.01,WeatherTracker,2013-08-21 16:50:00,
2013-08-21 12:00:00,84.7,77.4,30.15,East,95,0.0,0.0,79,0.00,,,0.01,WeatherTracker,2013-08-21 17:00:00,
2013-08-21 12:05:00,84.4,76.8,30.14,East,95,0.0,0.0,78,0.00,,,0.01,WeatherTracker,2013-08-21 17:05:00,
2013-08-21 12:10:00,84.1,76.5,30.14,East,95,0.0,0.0,78,0.00,,,0.01,WeatherTracker,2013-08-21 17:10:00,
2013-08-21 12:20:00,84.9,78.0,30.14,East,89,0.0,0.0,80,0.00,,,0.01,WeatherTracker,2013-08-21 17:20:00,
2013-08-21 12:25:00,85.1,76.7,30.14,East,82,0.0,0.0,76,0.00,,,0.01,WeatherTracker,2013-08-21 17:25:00,
2013-08-21 12:30:00,85.2,77.2,30.14,ENE,76,0.0,0.0,77,0.00,,,0.01,WeatherTracker,2013-08-21 17:30:00,
2013-08-21 12:40:00,85.8,76.9,30.13,ENE,77,0.0,0.0,75,0.00,,,0.01,WeatherTracker,2013-08-21 17:40:00,
2013-08-21 12:45:00,86.3,78.2,30.13,ENE,76,0.0,0.0,77,0.00,,,0.01,WeatherTracker,2013-08-21 17:45:00,
2013-08-21 12:50:00,86.1,76.8,30.13,ENE,74,0.0,0.0,74,0.00,,,0.01,WeatherTracker,2013-08-21 17:50:00,
2013-08-21 13:00:00,86.3,77.4,30.12,ENE,74,0.0,0.0,75,0.00,,,0.01,WeatherTracker,2013-08-21 18:00:00,
2013-08-21 13:05:00,87.4,78.9,30.12,NNE,15,0.0,0.0,76,0.00,,,0.01,WeatherTracker,2013-08-21 18:05:00,
2013-08-21 13:10:00,87.7,77.5,30.12,NNW,340,0.0,2.0,72,0.00,,,0.01,WeatherTracker,2013-08-21 18:10:00,
2013-08-21 13:15:00,88.2,79.7,30.11,NNW,341,0.0,2.0,76,0.00,,,0.01,WeatherTracker,2013-08-21 18:15:00,
2013-08-21 13:20:00,87.9,77.7,30.11,NNW,339,0.0,0.0,72,0.00,,,0.01,WeatherTracker,2013-08-21 18:20:00,
2013-08-21 13:30:00,86.9,77.6,30.11,NE,34,0.0,1.0,74,0.00,,,0.01,WeatherTracker,2013-08-21 18:30:00,
2013-08-21 13:40:00,86.9,77.2,30.10,NE,52,0.0,0.0,73,0.00,,,0.01,WeatherTracker,2013-08-21 18:40:00,
2013-08-21 13:50:00,88.5,77.9,30.10,NNE,24,0.0,0.0,71,0.00,,,0.01,WeatherTracker,2013-08-21 18:50:00,
2013-08-21 13:55:00,88.6,77.5,30.10,ENE,70,0.0,3.0,70,0.00,,,0.01,WeatherTracker,2013-08-21 18:55:00,
2013-08-21 14:00:00,88.8,79.0,30.10,NNE,18,0.0,8.0,73,0.00,,,0.01,WeatherTracker,2013-08-21 19:00:00,
2013-08-21 14:10:00,88.4,76.9,30.09,NE,51,0.0,8.0,69,0.00,,,0.01,WeatherTracker,2013-08-21 19:10:00,
2013-08-21 14:15:00,88.7,78.1,30.09,North,5,0.0,3.0,71,0.00,,,0.01,WeatherTracker,2013-08-21 19:15:00,
2013-08-21 14:20:00,88.9,78.2,30.09,NNE,12,0.0,6.0,71,0.00,,,0.01,WeatherTracker,2013-08-21 19:20:00,
2013-08-21 14:30:00,89.0,77.5,30.09,NE,55,1.0,5.0,69,0.00,,,0.01,WeatherTracker,2013-08-21 19:30:00,
2013-08-21 14:35:00,89.1,77.1,30.08,East,100,0.0,9.0,68,0.00,,,0.01,WeatherTracker,2013-08-21 19:35:00,
2013-08-21 14:40:00,88.7,76.3,30.08,East,100,0.0,9.0,67,0.00,,,0.01,WeatherTracker,2013-08-21 19:40:00,
2013-08-21 14:50:00,87.6,75.3,30.08,East,100,0.0,0.0,67,0.00,,,0.01,WeatherTracker,2013-08-21 19:50:00,
2013-08-21 14:55:00,88.4,76.9,30.08,East,99,0.0,0.0,69,0.00,,,0.01,WeatherTracker,2013-08-21 19:55:00,
2013-08-21 15:00:00,89.0,76.6,30.07,East,101,0.0,0.0,67,0.00,,,0.01,WeatherTracker,2013-08-21 20:00:00,
2013-08-21 15:05:00,89.2,77.7,30.07,East,101,0.0,0.0,69,0.00,,,0.01,WeatherTracker,2013-08-21 20:05:00,
2013-08-21 15:10:00,89.5,77.1,30.07,NE,42,4.0,5.0,67,0.00,,,0.01,WeatherTracker,2013-08-21 20:10:00,
2013-08-21 15:15:00,88.9,78.2,30.07,ENE,65,0.0,5.0,71,0.00,,,0.01,WeatherTracker,2013-08-21 20:15:00,
2013-08-21 15:25:00,89.2,78.1,30.06,NE,47,0.0,4.0,70,0.00,,,0.01,WeatherTracker,2013-08-21 20:25:00,
2013-08-21 15:30:00,89.4,77.4,30.06,NE,44,0.0,4.0,68,0.00,,,0.01,WeatherTracker,2013-08-21 20:30:00,
2013-08-21 15:35:00,89.7,76.3,30.06,ENE,64,0.0,4.0,65,0.00,,,0.01,WeatherTracker,2013-08-21 20:35:00,
2013-08-21 15:45:00,90.0,78.0,30.06,East,90,0.0,0.0,68,0.00,,,0.01,WeatherTracker,2013-08-21 20:45:00,
2013-08-21 15:55:00,90.1,76.7,30.07,East,88,0.0,3.0,65,0.00,,,0.01,WeatherTracker,2013-08-21 20:55:00,
2013-08-21 16:00:00,90.1,77.2,30.07,East,88,0.0,1.0,66,0.00,,,0.01,WeatherTracker,2013-08-21 21:00:00,
2013-08-21 16:10:00,90.2,76.3,30.06,ENE,74,0.0,2.0,64,0.00,,,0.01,WeatherTracker,2013-08-21 21:10:00,
2013-08-21 16:15:00,90.2,76.8,30.06,ESE,109,0.0,2.0,65,0.00,,,0.01,WeatherTracker,2013-08-21 21:15:00,
2013-08-21 16:20:00,90.2,75.9,30.06,ESE,109,0.0,2.0,63,0.00,,,0.01,WeatherTracker,2013-08-21 21:20:00,
2013-08-21 16:30:00,90.9,77.5,30.06,ENE,57,0.0,5.0,65,0.00,,,0.01,WeatherTracker,2013-08-21 21:30:00,
2013-08-21 16:40:00,90.7,78.2,30.07,SSE,167,4.0,4.0,67,0.00,,,0.01,WeatherTracker,2013-08-21 21:40:00,
2013-08-21 16:50:00,84.6,72.8,30.07,NNE,23,6.0,18.0,68,0.07,,,0.08,WeatherTracker,2013-08-21 21:50:00,
2013-08-21 17:00:00,76.8,70.9,30.07,SE,124,0.0,18.0,82,0.40,,,0.41,WeatherTracker,2013-08-21 22:00:00,
2013-08-21 17:05:00,76.0,70.8,30.07,SE,124,0.0,12.0,84,0.49,,,0.50,WeatherTracker,2013-08-21 22:05:00,
2013-08-21 17:10:00,75.1,71.3,30.07,SE,124,0.0,1.0,88,0.52,,,0.53,WeatherTracker,2013-08-21 22:10:00,
2013-08-21 17:15:00,74.4,70.9,30.08,ESE,116,0.0,2.0,89,0.53,,,0.54,WeatherTracker,2013-08-21 22:15:00,
2013-08-21 17:25:00,73.9,71.1,30.08,ESE,114,0.0,0.0,91,0.54,,,0.55,WeatherTracker,2013-08-21 22:25:00,
2013-08-21 17:30:00,73.9,71.4,30.07,ENE,67,0.0,4.0,92,0.54,,,0.55,WeatherTracker,2013-08-21 22:30:00,
2013-08-21 17:35:00,74.2,72.4,30.07,ENE,67,0.0,4.0,94,0.54,,,0.55,WeatherTracker,2013-08-21 22:35:00,
2013-08-21 17:40:00,74.4,72.6,30.07,ENE,67,0.0,1.0,94,0.54,,,0.55,WeatherTracker,2013-08-21 22:40:00,
2013-08-21 17:45:00,74.4,72.6,30.07,ENE,67,0.0,0.0,94,0.54,,,0.55,WeatherTracker,2013-08-21 22:45:00,
2013-08-21 17:55:00,74.3,72.5,30.08,ENE,67,0.0,0.0,94,0.32,,,0.55,WeatherTracker,2013-08-21 22:55:00,
2013-08-21 18:00:00,74.1,72.3,30.08,ENE,67,0.0,0.0,94,0.14,,,0.55,WeatherTracker,2013-08-21 23:00:00,
2013-08-21 18:10:00,74.1,72.3,30.08,ENE,67,0.0,0.0,94,0.02,,,0.55,WeatherTracker,2013-08-21 23:10:00,
2013-08-21 18:20:00,74.4,72.9,30.08,ENE,67,0.0,0.0,95,0.01,,,0.55,WeatherTracker,2013-08-21 23:20:00,
2013-08-21 18:25:00,74.5,73.0,30.08,ENE,67,0.0,0.0,95,0.00,,,0.55,WeatherTracker,2013-08-21 23:25:00,
2013-08-21 18:30:00,74.3,72.8,30.08,ENE,67,0.0,0.0,95,0.00,,,0.55,WeatherTracker,2013-08-21 23:30:00,
2013-08-21 18:40:00,74.5,73.0,30.09,ENE,67,0.0,0.0,95,0.00,,,0.55,WeatherTracker,2013-08-21 23:40:00,
2013-08-21 18:50:00,74.6,73.1,30.08,ENE,68,0.0,0.0,95,0.00,,,0.55,WeatherTracker,2013-08-21 23:50:00,
2013-08-21 19:00:00,74.6,73.1,30.08,ENE,68,0.0,0.0,95,0.00,,,0.55,WeatherTracker,2013-08-22 00:00:00,
2013-08-21 19:10:00,74.5,73.3,30.08,ENE,68,0.0,0.0,96,0.00,,,0.55,WeatherTracker,2013-08-22 00:10:00,
2013-08-21 19:20:00,74.4,73.2,30.09,ENE,68,0.0,0.0,96,0.00,,,0.55,WeatherTracker,2013-08-22 00:20:00,
2013-08-21 19:30:00,74.0,72.5,30.09,ESE,103,0.0,2.0,95,0.00,,,0.55,WeatherTracker,2013-08-22 00:30:00,
2013-08-21 19:40:00,73.9,72.7,30.10,ESE,109,0.0,1.0,96,0.00,,,0.55,WeatherTracker,2013-08-22 00:40:00,
2013-08-21 19:45:00,73.8,72.6,30.11,ESE,109,0.0,0.0,96,0.00,,,0.55,WeatherTracker,2013-08-22 00:45:00,
2013-08-21 19:55:00,74.0,72.8,30.12,ESE,109,0.0,0.0,96,0.00,,,0.55,WeatherTracker,2013-08-22 00:55:00,
2013-08-21 20:00:00,74.0,72.8,30.12,ESE,108,0.0,0.0,96,0.00,,,0.55,WeatherTracker,2013-08-22 01:00:00,
2013-08-21 20:05:00,73.8,72.6,30.12,ESE,108,0.0,0.0,96,0.00,,,0.55,WeatherTracker,2013-08-22 01:05:00,
2013-08-21 20:10:00,73.8,72.6,30.12,ESE,108,0.0,0.0,96,0.00,,,0.55,WeatherTracker,2013-08-22 01:10:00,
2013-08-21 20:15:00,73.8,72.6,30.12,ESE,108,0.0,0.0,96,0.00,,,0.55,WeatherTracker,2013-08-22 01:15:00,
2013-08-21 20:20:00,73.9,72.7,30.11,ESE,108,0.0,0.0,96,0.00,,,0.55,WeatherTracker,2013-08-22 01:20:00,
2013-08-21 20:30:00,73.8,72.6,30.12,ESE,108,0.0,0.0,96,0.00,,,0.55,WeatherTracker,2013-08-22 01:30:00,
2013-08-21 20:35:00,73.8,72.6,30.11,ESE,108,0.0,0.0,96,0.00,,,0.55,WeatherTracker,2013-08-22 01:35:00,
2013-08-21 20:45:00,73.7,72.5,30.11,ESE,108,0.0,0.0,96,0.00,,,0.55,WeatherTracker,2013-08-22 01:45:00,
2013-08-21 20:55:00,73.6,72.4,30.11,ESE,108,0.0,0.0,96,0.00,,,0.55,WeatherTracker,2013-08-22 01:55:00,
2013-08-21 21:00:00,73.6,72.4,30.11,ESE,108,0.0,0.0,96,0.00,,,0.55,WeatherTracker,2013-08-22 02:00:00,
2013-08-21 21:05:00,73.5,72.3,30.12,ESE,108,0.0,0.0,96,0.00,,,0.55,WeatherTracker,2013-08-22 02:05:00,
2013-08-21 21:10:00,73.5,72.3,30.12,ESE,108,0.0,0.0,96,0.00,,,0.55,WeatherTracker,2013-08-22 02:10:00,
2013-08-21 21:20:00,73.4,72.2,30.11,ESE,108,0.0,0.0,96,0.00,,,0.55,WeatherTracker,2013-08-22 02:20:00,
2013-08-21 21:25:00,73.5,72.3,30.11,ESE,108,0.0,0.0,96,0.00,,,0.55,WeatherTracker,2013-08-22 02:25:00,
2013-08-21 21:30:00,73.4,72.2,30.11,ESE,108,0.0,0.0,96,0.00,,,0.55,WeatherTracker,2013-08-22 02:30:00,
2013-08-21 21:40:00,73.3,72.1,30.11,ESE,109,0.0,0.0,96,0.00,,,0.55,WeatherTracker,2013-08-22 02:40:00,
2013-08-21 21:45:00,73.2,72.3,30.11,ESE,109,0.0,0.0,97,0.00,,,0.55,WeatherTracker,2013-08-22 02:45:00,
2013-08-21 21:55:00,73.2,72.3,30.11,ESE,109,0.0,0.0,97,0.00,,,0.55,WeatherTracker,2013-08-22 02:55:00,
2013-08-21 22:00:00,73.1,72.2,30.11,ESE,109,0.0,0.0,97,0.00,,,0.55,WeatherTracker,2013-08-22 03:00:00,
2013-08-21 22:10:00,73.0,72.1,30.10,ESE,109,0.0,0.0,97,0.00,,,0.55,WeatherTracker,2013-08-22 03:10:00,
2013-08-21 22:15:00,73.0,72.1,30.10,ESE,109,0.0,0.0,97,0.00,,,0.55,WeatherTracker,2013-08-22 03:15:00,
2013-08-21 22:25:00,72.9,72.0,30.10,ESE,109,0.0,0.0,97,0.00,,,0.55,WeatherTracker,2013-08-22 03:25:00,
2013-08-21 22:35:00,72.8,71.9,30.09,ESE,109,0.0,0.0,97,0.00,,,0.55,WeatherTracker,2013-08-22 03:35:00,
2013-08-21 22:40:00,72.8,71.9,30.09,ESE,109,0.0,0.0,97,0.00,,,0.55,WeatherTracker,2013-08-22 03:40:00,
2013-08-21 22:45:00,72.7,71.8,30.09,ESE,109,0.0,0.0,97,0.00,,,0.55,WeatherTracker,2013-08-22 03:45:00,
2013-08-21 22:50:00,72.6,71.7,30.09,ESE,109,0.0,0.0,97,0.00,,,0.55,WeatherTracker,2013-08-22 03:50:00,
2013-08-21 22:55:00,72.6,71.7,30.09,ESE,109,0.0,0.0,97,0.00,,,0.55,WeatherTracker,2013-08-22 03:55:00,
2013-08-21 23:05:00,72.6,71.7,30.09,ESE,109,0.0,0.0,97,0.00,,,0.55,WeatherTracker,2013-08-22 04:05:00,
2013-08-21 23:10:00,72.5,71.6,30.09,ESE,109,0.0,0.0,97,0.00,,,0.55,WeatherTracker,2013-08-22 04:10:00,
2013-08-21 23:15:00,72.5,71.6,30.10,ESE,109,0.0,0.0,97,0.00,,,0.55,WeatherTracker,2013-08-22 04:15:00,
2013-08-21 23:20:00,72.5,71.6,30.10,ESE,109,0.0,0.0,97,0.00,,,0.55,WeatherTracker,2013-08-22 04:20:00,
2013-08-21 23:25:00,72.5,71.6,30.10,ESE,109,0.0,0.0,97,0.00,,,0.55,WeatherTracker,2013-08-22 04:25:00,
2013-08-21 23:30:00,72.4,71.5,30.10,ESE,109,0.0,0.0,97,0.00,,,0.55,WeatherTracker,2013-08-22 04:30:00,
2013-08-21 23:35:00,72.4,71.5,30.10,ESE,109,0.0,0.0,97,0.00,,,0.55,WeatherTracker,2013-08-22 04:35:00,
2013-08-21 23:40:00,72.4,71.5,30.10,ESE,109,0.0,0.0,97,0.00,,,0.55,WeatherTracker,2013-08-22 04:40:00,
2013-08-21 23:45:00,72.3,71.4,30.10,ESE,109,0.0,0.0,97,0.00,,,0.55,WeatherTracker,2013-08-22 04:45:00,
2013-08-21 23:50:00,72.3,71.4,30.10,ESE,109,0.0,0.0,97,0.00,,,0.55,WeatherTracker,2013-08-22 04:50:00,
2013-08-21 23:55:00,72.3,71.4,30.10,ESE,109,0.0,0.0,97,0.00,,,0.55,WeatherTracker,2013-08-22 04:55:00,